Time;durP1;ratioP1;P1;durP2;ratioP2;P2;SDS_P1;SDS_P2;PMS_P1;PMS_P2;Temp;Humidity;BMP_temperature;BMP_pressure;BME280_temperature;BME280_humidity;BME280_pressure;Samples;Min_cycle;Max_cycle;Signal;HPM_P1;HPM_P2
2021/11/05 00:00:57;;;;;;;30.97;14.27;;;;;;;;;;4974352;28;20683;-74
2021/11/05 00:03:24;;;;;;;32.50;13.93;;;;;;;;;;4974768;28;20292;-74
2021/11/05 00:05:52;;;;;;;32.37;15.50;;;;;;;;;;4973206;28;20225;-75
2021/11/05 00:08:22;;;;;;;32.13;15.63;;;;;;;;;;4976755;28;20785;-75
2021/11/05 00:10:50;;;;;;;32.80;15.10;;;;;;;;;;4964927;28;20586;-75
2021/11/05 00:13:17;;;;;;;34.07;15.70;;;;;;;;;;4969499;28;20292;-75
2021/11/05 00:15:44;;;;;;;37.43;16.60;;;;;;;;;;4969723;28;20197;-75
2021/11/05 00:18:13;;;;;;;31.63;15.33;;;;;;;;;;4968127;28;20216;-75
2021/11/05 00:20:40;;;;;;;31.67;14.47;;;;;;;;;;4973002;28;20285;-75
2021/11/05 00:23:08;;;;;;;31.17;13.87;;;;;;;;;;4973466;28;20223;-74
2021/11/05 00:25:35;;;;;;;27.27;12.77;;;;;;;;;;4969638;28;20261;-73
2021/11/05 00:28:03;;;;;;;29.80;14.40;;;;;;;;;;4972194;28;20197;-75
2021/11/05 00:30:30;;;;;;;27.87;14.00;;;;;;;;;;4976615;28;20233;-75
2021/11/05 00:32:57;;;;;;;33.33;15.23;;;;;;;;;;4977205;28;20528;-74
2021/11/05 00:35:26;;;;;;;28.90;13.33;;;;;;;;;;4978998;28;20240;-74
2021/11/05 00:37:54;;;;;;;30.23;14.30;;;;;;;;;;4976330;28;20213;-74
2021/11/05 00:40:21;;;;;;;31.40;14.90;;;;;;;;;;4979200;28;20295;-75
2021/11/05 00:42:48;;;;;;;29.60;12.60;;;;;;;;;;4975765;28;20269;-75
2021/11/05 00:45:16;;;;;;;33.93;14.77;;;;;;;;;;4974220;28;20216;-75
2021/11/05 00:47:43;;;;;;;31.87;14.50;;;;;;;;;;4984084;28;20206;-74
2021/11/05 00:50:10;;;;;;;31.03;14.83;;;;;;;;;;4975653;28;20257;-75
2021/11/05 00:52:39;;;;;;;34.07;14.57;;;;;;;;;;4980501;28;20320;-74
2021/11/05 00:55:07;;;;;;;31.83;14.97;;;;;;;;;;4980854;28;20287;-75
2021/11/05 00:57:34;;;;;;;31.47;14.60;;;;;;;;;;4983913;28;20288;-75
2021/11/05 01:00:01;;;;;;;32.27;14.50;;;;;;;;;;4980390;28;20293;-75
2021/11/05 01:02:29;;;;;;;33.43;15.60;;;;;;;;;;4980742;28;20308;-75
2021/11/05 01:04:56;;;;;;;33.57;14.90;;;;;;;;;;4971073;28;20891;-74
2021/11/05 01:07:23;;;;;;;35.73;14.60;;;;;;;;;;4971921;28;20300;-74
2021/11/05 01:09:52;;;;;;;32.00;14.83;;;;;;;;;;4972822;28;20328;-75
2021/11/05 01:12:20;;;;;;;36.27;16.23;;;;;;;;;;4975327;28;20297;-75
2021/11/05 01:14:47;;;;;;;31.37;15.40;;;;;;;;;;4973626;28;20208;-74
2021/11/05 01:17:14;;;;;;;33.33;14.13;;;;;;;;;;4971262;28;20198;-75
2021/11/05 01:19:42;;;;;;;30.70;14.23;;;;;;;;;;4976754;28;20258;-75
2021/11/05 01:22:09;;;;;;;32.23;14.87;;;;;;;;;;4977464;28;20722;-75
2021/11/05 01:24:36;;;;;;;29.77;13.73;;;;;;;;;;4972318;28;20300;-74
2021/11/05 01:27:05;;;;;;;34.27;14.20;;;;;;;;;;4969988;28;20241;-73
2021/11/05 01:29:32;;;;;;;33.30;14.97;;;;;;;;;;4977215;28;20649;-76
2021/11/05 01:31:59;;;;;;;32.13;13.73;;;;;;;;;;4978012;28;20267;-74
2021/11/05 01:34:27;;;;;;;32.50;13.60;;;;;;;;;;4978294;28;20288;-75
2021/11/05 01:36:55;;;;;;;32.47;14.23;;;;;;;;;;4984923;28;20245;-75
2021/11/05 01:39:22;;;;;;;30.27;13.07;;;;;;;;;;4979464;28;20287;-75
2021/11/05 01:41:49;;;;;;;30.80;14.47;;;;;;;;;;4977868;28;20308;-75
2021/11/05 01:44:18;;;;;;;27.77;12.63;;;;;;;;;;4973703;28;20233;-75
2021/11/05 01:46:45;;;;;;;32.13;14.63;;;;;;;;;;4976731;28;20202;-74
2021/11/05 01:49:14;;;;;;;28.23;13.77;;;;;;;;;;4974929;28;20340;-74
2021/11/05 01:51:41;;;;;;;28.33;13.13;;;;;;;;;;4980190;28;20268;-75
2021/11/05 01:54:10;;;;;;;26.23;11.83;;;;;;;;;;4979228;28;20296;-75
2021/11/05 01:56:37;;;;;;;27.17;12.97;;;;;;;;;;4975263;28;20208;-75
2021/11/05 01:59:05;;;;;;;32.10;14.03;;;;;;;;;;4982548;28;20286;-75
2021/11/05 02:01:34;;;;;;;38.50;14.33;;;;;;;;;;4976076;28;20640;-75
2021/11/05 02:04:02;;;;;;;30.80;13.40;;;;;;;;;;4978573;28;20295;-74
2021/11/05 02:06:29;;;;;;;29.10;13.67;;;;;;;;;;4976403;28;20251;-75
2021/11/05 02:08:57;;;;;;;42.47;15.93;;;;;;;;;;4978897;28;20284;-75
2021/11/05 02:11:24;;;;;;;33.80;15.97;;;;;;;;;;4974232;28;20232;-74
2021/11/05 02:13:52;;;;;;;39.00;16.63;;;;;;;;;;4979128;28;20706;-75
2021/11/05 07:25:41;;;;;;;48.60;16.43;;;;;;;;;;4983829;23;20292;-75
2021/11/05 07:28:09;;;;;;;41.77;15.17;;;;;;;;;;4955616;28;20210;-76
2021/11/05 07:30:36;;;;;;;40.67;15.40;;;;;;;;;;4953206;28;20222;-74
2021/11/05 07:33:04;;;;;;;44.97;15.93;;;;;;;;;;4954526;28;21004;-75
2021/11/05 07:35:31;;;;;;;41.50;16.07;;;;;;;;;;4956057;28;20296;-74
2021/11/05 07:37:59;;;;;;;41.03;14.90;;;;;;;;;;4953416;28;20213;-74
2021/11/05 07:40:27;;;;;;;42.63;15.67;;;;;;;;;;4952977;28;20569;-77
2021/11/05 07:42:55;;;;;;;40.40;14.57;;;;;;;;;;4953957;28;20622;-74
2021/11/05 07:45:25;;;;;;;45.23;15.77;;;;;;;;;;4954811;28;20629;-74
2021/11/05 07:47:53;;;;;;;35.90;14.00;;;;;;;;;;4954799;28;20206;-74
2021/11/05 07:50:21;;;;;;;43.63;16.63;;;;;;;;;;4955159;28;20318;-74
2021/11/05 07:52:48;;;;;;;41.93;15.00;;;;;;;;;;4954825;28;20293;-74
2021/11/05 07:55:15;;;;;;;39.43;15.37;;;;;;;;;;4952004;28;20212;-74
2021/11/05 07:57:42;;;;;;;37.63;15.20;;;;;;;;;;4948677;28;20206;-74
2021/11/05 08:00:12;;;;;;;34.77;13.20;;;;;;;;;;4982750;23;20332;-74
2021/11/05 08:02:40;;;;;;;37.43;14.67;;;;;;;;;;4966870;28;20220;-74
2021/11/05 08:05:09;;;;;;;43.17;15.07;;;;;;;;;;4969272;28;20210;-76
2021/11/05 08:07:36;;;;;;;38.87;15.87;;;;;;;;;;4973140;28;20296;-77
2021/11/05 08:10:04;;;;;;;38.03;15.07;;;;;;;;;;4968760;28;20399;-74
2021/11/05 08:12:31;;;;;;;35.47;14.53;;;;;;;;;;4976069;28;20308;-75
2021/11/05 08:14:58;;;;;;;47.07;16.67;;;;;;;;;;4968485;28;20634;-74
2021/11/05 08:17:27;;;;;;;33.20;14.37;;;;;;;;;;4971561;28;20205;-74
2021/11/05 08:19:54;;;;;;;35.77;14.10;;;;;;;;;;4971531;28;20226;-74
2021/11/05 08:22:21;;;;;;;29.77;12.47;;;;;;;;;;4969988;28;20289;-74
2021/11/05 08:24:51;;;;;;;36.83;14.70;;;;;;;;;;4974327;28;20275;-75
2021/11/05 08:27:19;;;;;;;37.17;14.57;;;;;;;;;;4973515;28;20220;-74
2021/11/05 08:29:46;;;;;;;40.10;14.67;;;;;;;;;;4975267;28;20232;-73
2021/11/05 08:32:14;;;;;;;42.63;18.20;;;;;;;;;;4973639;28;20766;-74
2021/11/05 08:34:43;;;;;;;42.07;17.00;;;;;;;;;;4970605;28;20217;-73
2021/11/05 08:37:10;;;;;;;37.53;14.67;;;;;;;;;;4979299;28;20646;-74
2021/11/05 08:39:37;;;;;;;37.60;14.63;;;;;;;;;;4975934;28;20317;-74
2021/11/05 08:42:05;;;;;;;39.90;16.00;;;;;;;;;;4979373;28;20236;-74
2021/11/05 08:44:33;;;;;;;37.40;14.73;;;;;;;;;;4983251;28;20611;-74
2021/11/05 08:47:00;;;;;;;40.13;16.47;;;;;;;;;;4980132;28;20771;-74
2021/11/05 08:49:28;;;;;;;39.97;17.03;;;;;;;;;;4975141;28;20302;-74
2021/11/05 08:51:56;;;;;;;38.67;16.13;;;;;;;;;;4978542;28;20719;-74
2021/11/05 08:54:24;;;;;;;38.27;13.33;;;;;;;;;;4976310;28;20313;-74
2021/11/05 08:56:51;;;;;;;38.23;15.70;;;;;;;;;;4978713;28;20292;-79
2021/11/05 08:59:19;;;;;;;34.27;14.03;;;;;;;;;;4963127;28;20335;-74
2021/11/05 09:01:46;;;;;;;33.43;14.07;;;;;;;;;;4971158;28;20212;-74
2021/11/05 09:04:14;;;;;;;38.10;15.10;;;;;;;;;;4977110;28;20300;-74
2021/11/05 09:06:42;;;;;;;37.50;14.70;;;;;;;;;;4975847;28;20216;-74
2021/11/05 09:09:10;;;;;;;34.97;14.47;;;;;;;;;;4974620;28;20252;-74
2021/11/05 09:11:38;;;;;;;35.57;14.43;;;;;;;;;;4976357;28;20331;-75
2021/11/05 09:14:06;;;;;;;32.60;14.17;;;;;;;;;;4979080;28;20292;-74
2021/11/05 09:16:33;;;;;;;41.33;18.57;;;;;;;;;;4975485;28;20224;-74
2021/11/05 09:19:02;;;;;;;36.83;13.37;;;;;;;;;;4979667;28;20226;-73
2021/11/05 09:21:31;;;;;;;35.73;14.40;;;;;;;;;;4977292;28;20204;-74
2021/11/05 09:23:58;;;;;;;41.83;19.87;;;;;;;;;;4980325;28;20210;-72
2021/11/05 09:26:27;;;;;;;34.37;13.63;;;;;;;;;;4977050;28;20292;-73
2021/11/05 09:28:54;;;;;;;36.40;16.00;;;;;;;;;;4978856;28;20229;-74
2021/11/05 09:31:21;;;;;;;41.63;17.33;;;;;;;;;;4974167;28;20593;-74
2021/11/05 09:33:49;;;;;;;42.20;16.87;;;;;;;;;;4977807;28;20207;-73
2021/11/05 09:36:16;;;;;;;44.30;17.03;;;;;;;;;;4976812;28;20288;-73
2021/11/05 09:38:44;;;;;;;46.37;18.87;;;;;;;;;;4975724;28;20221;-74
2021/11/05 09:41:11;;;;;;;36.83;14.80;;;;;;;;;;4971485;28;20205;-73
2021/11/05 09:43:41;;;;;;;39.53;14.87;;;;;;;;;;4981018;28;20292;-75
2021/11/05 09:46:08;;;;;;;41.93;14.90;;;;;;;;;;4974870;28;20245;-74
2021/11/05 09:48:38;;;;;;;34.67;13.57;;;;;;;;;;4975926;28;20285;-74
2021/11/05 09:51:05;;;;;;;34.40;13.27;;;;;;;;;;4975858;28;20368;-75
2021/11/05 09:53:36;;;;;;;30.37;13.43;;;;;;;;;;4972513;28;20296;-74
2021/11/05 09:56:03;;;;;;;36.17;13.07;;;;;;;;;;4974500;28;20237;-74
2021/11/05 09:58:30;;;;;;;34.90;14.30;;;;;;;;;;4973791;28;20207;-74
2021/11/05 10:00:59;;;;;;;33.97;14.13;;;;;;;;;;4976283;28;20296;-74
2021/11/05 10:03:27;;;;;;;34.43;14.03;;;;;;;;;;4978623;28;20291;-75
2021/11/05 10:05:57;;;;;;;32.27;12.13;;;;;;;;;;4974519;28;20210;-74
2021/11/05 10:08:28;;;;;;;29.07;11.27;;;;;;;;;;4977544;28;20217;-74
2021/11/05 10:10:55;;;;;;;32.43;15.00;;;;;;;;;;4979285;28;20252;-75
2021/11/05 10:13:25;;;;;;;26.97;11.90;;;;;;;;;;4976172;28;20220;-74
2021/11/05 10:15:53;;;;;;;28.27;12.27;;;;;;;;;;4976443;28;20652;-74
2021/11/05 10:18:23;;;;;;;27.73;11.20;;;;;;;;;;4975997;28;20561;-74
2021/11/05 10:21:06;;;;;;;29.03;12.93;;;;;;;;;;4982838;28;20304;-74
2021/11/05 10:23:35;;;;;;;28.00;11.30;;;;;;;;;;4978119;28;20209;-74
2021/11/05 10:26:03;;;;;;;27.70;12.07;;;;;;;;;;4977818;28;20209;-74
2021/11/05 10:28:31;;;;;;;24.23;10.83;;;;;;;;;;4978183;28;20285;-74
2021/11/05 10:31:00;;;;;;;30.53;12.67;;;;;;;;;;4972951;28;20259;-74
2021/11/05 10:33:30;;;;;;;31.17;12.53;;;;;;;;;;4974616;28;20680;-75
2021/11/05 10:35:58;;;;;;;28.73;12.43;;;;;;;;;;4976959;28;20581;-74
2021/11/05 10:38:26;;;;;;;28.13;10.30;;;;;;;;;;4976334;28;20205;-75
2021/11/05 10:40:54;;;;;;;29.10;11.40;;;;;;;;;;4975132;28;20284;-75
2021/11/05 10:43:31;;;;;;;24.47;10.60;;;;;;;;;;4976491;28;20301;-75
2021/11/05 10:45:58;;;;;;;20.27;8.63;;;;;;;;;;4975875;28;20327;-74
2021/11/05 10:48:27;;;;;;;27.27;10.83;;;;;;;;;;4977024;28;20291;-75
2021/11/05 10:50:59;;;;;;;24.53;9.97;;;;;;;;;;4973527;28;20233;-75
2021/11/05 10:53:26;;;;;;;19.47;9.13;;;;;;;;;;4975626;28;20739;-75
2021/11/05 10:55:54;;;;;;;19.90;8.73;;;;;;;;;;4976476;28;20284;-75
2021/11/05 10:58:23;;;;;;;22.10;8.47;;;;;;;;;;4971587;28;20264;-75
2021/11/05 11:00:52;;;;;;;17.80;8.47;;;;;;;;;;4976961;28;20953;-75
2021/11/05 11:03:22;;;;;;;17.10;7.07;;;;;;;;;;4975677;28;20225;-75
2021/11/05 11:05:49;;;;;;;19.50;8.50;;;;;;;;;;4973732;28;20205;-76
2021/11/05 11:08:22;;;;;;;16.43;7.33;;;;;;;;;;4977211;28;20246;-75
2021/11/05 11:10:50;;;;;;;22.13;8.77;;;;;;;;;;4977540;28;20319;-75
2021/11/05 11:13:31;;;;;;;23.33;9.40;;;;;;;;;;4976408;28;20210;-75
2021/11/05 11:15:59;;;;;;;23.33;8.73;;;;;;;;;;4979575;28;20289;-75
2021/11/05 11:18:26;;;;;;;21.67;9.37;;;;;;;;;;4978550;28;20213;-75
2021/11/05 11:20:53;;;;;;;19.47;7.93;;;;;;;;;;4975906;28;20289;-74
2021/11/05 11:23:22;;;;;;;17.90;7.60;;;;;;;;;;4976657;28;20329;-75
2021/11/05 11:25:50;;;;;;;21.80;8.47;;;;;;;;;;4973296;28;20291;-75
2021/11/05 11:28:17;;;;;;;14.97;6.33;;;;;;;;;;4981545;28;20667;-75
2021/11/05 11:30:44;;;;;;;19.33;8.03;;;;;;;;;;4974833;28;20221;-75
2021/11/05 11:33:12;;;;;;;17.47;7.87;;;;;;;;;;4969431;28;20231;-75
2021/11/05 11:35:41;;;;;;;14.27;6.73;;;;;;;;;;4968933;28;20280;-75
2021/11/05 11:38:08;;;;;;;16.77;7.50;;;;;;;;;;4975008;28;20300;-74
2021/11/05 11:40:37;;;;;;;15.87;7.07;;;;;;;;;;4972045;28;20352;-75
2021/11/05 11:43:04;;;;;;;17.63;7.73;;;;;;;;;;4969535;28;20638;-74
2021/11/05 11:45:32;;;;;;;16.20;6.80;;;;;;;;;;4974738;28;20205;-75
2021/11/05 11:47:59;;;;;;;17.50;8.40;;;;;;;;;;4973131;28;20292;-75
2021/11/05 11:50:32;;;;;;;21.73;8.53;;;;;;;;;;4978310;28;20723;-75
2021/11/05 11:53:00;;;;;;;14.67;7.57;;;;;;;;;;4970063;28;20244;-75
2021/11/05 11:55:30;;;;;;;20.13;9.37;;;;;;;;;;4973369;28;20209;-76
2021/11/05 11:58:16;;;;;;;21.63;9.07;;;;;;;;;;4975224;28;20566;-75
2021/11/05 12:00:44;;;;;;;17.23;7.83;;;;;;;;;;4977110;28;20239;-74
2021/11/05 12:03:12;;;;;;;19.37;7.87;;;;;;;;;;4970013;28;20695;-75
2021/11/05 12:05:43;;;;;;;19.40;7.97;;;;;;;;;;4972341;28;20233;-75
2021/11/05 12:08:21;;;;;;;15.73;7.27;;;;;;;;;;4975449;28;20224;-75
2021/11/05 12:10:49;;;;;;;15.87;7.20;;;;;;;;;;4969107;28;20312;-75
2021/11/05 12:13:44;;;;;;;19.37;8.77;;;;;;;;;;4980822;28;20300;-75
2021/11/05 12:16:18;;;;;;;14.53;7.17;;;;;;;;;;4981806;28;20328;-74
2021/11/05 12:19:01;;;;;;;14.43;6.33;;;;;;;;;;4979650;28;20271;-75
2021/11/05 12:21:29;;;;;;;13.50;6.90;;;;;;;;;;4974441;28;20308;-75
2021/11/05 12:24:11;;;;;;;13.07;6.47;;;;;;;;;;4981784;28;20650;-75
2021/11/05 12:26:42;;;;;;;14.23;6.53;;;;;;;;;;4977176;28;20640;-75
2021/11/05 12:29:11;;;;;;;15.30;6.93;;;;;;;;;;4973454;28;20344;-75
2021/11/05 12:31:44;;;;;;;14.17;6.50;;;;;;;;;;4979874;28;20951;-75
2021/11/05 12:34:27;;;;;;;16.27;7.17;;;;;;;;;;4977788;28;20740;-75
2021/11/05 12:36:55;;;;;;;12.20;7.00;;;;;;;;;;4977028;28;20216;-75
2021/11/05 12:39:29;;;;;;;14.00;5.67;;;;;;;;;;4978266;28;20312;-75
2021/11/05 12:42:00;;;;;;;9.80;5.70;;;;;;;;;;4978013;28;20865;-75
2021/11/05 12:44:29;;;;;;;14.63;6.23;;;;;;;;;;4979909;28;20292;-75
2021/11/05 12:46:57;;;;;;;11.50;5.57;;;;;;;;;;4978460;28;20209;-75
2021/11/05 12:49:24;;;;;;;13.20;6.60;;;;;;;;;;4978185;28;20224;-75
2021/11/05 12:51:53;;;;;;;15.53;7.00;;;;;;;;;;4977685;28;20225;-75
2021/11/05 12:54:21;;;;;;;13.73;6.83;;;;;;;;;;4974469;28;20201;-75
2021/11/05 12:56:52;;;;;;;14.87;6.97;;;;;;;;;;4980212;28;20910;-75
2021/11/05 12:59:22;;;;;;;14.97;8.03;;;;;;;;;;4978473;28;20224;-75
2021/11/05 13:01:55;;;;;;;12.47;6.27;;;;;;;;;;4977512;28;20205;-75
2021/11/05 13:04:29;;;;;;;12.83;6.93;;;;;;;;;;4980428;28;20670;-75
2021/11/05 13:06:58;;;;;;;18.57;8.83;;;;;;;;;;4981232;28;20225;-75
2021/11/05 13:09:38;;;;;;;18.77;8.47;;;;;;;;;;4995956;23;20229;-74
2021/11/05 13:12:09;;;;;;;17.83;8.07;;;;;;;;;;4961901;28;20329;-73
2021/11/05 13:14:41;;;;;;;18.57;9.20;;;;;;;;;;4962577;28;20214;-74
2021/11/05 13:17:14;;;;;;;20.80;8.63;;;;;;;;;;4964239;28;20208;-74
2021/11/05 13:19:45;;;;;;;17.70;8.40;;;;;;;;;;4959051;28;20253;-74
2021/11/05 13:22:12;;;;;;;18.63;9.20;;;;;;;;;;4959009;28;20711;-74
2021/11/05 13:24:39;;;;;;;19.37;9.00;;;;;;;;;;4961152;28;20652;-74
2021/11/05 13:27:07;;;;;;;20.87;9.47;;;;;;;;;;4960433;28;20293;-74
2021/11/05 13:29:35;;;;;;;21.73;9.00;;;;;;;;;;4958549;28;20674;-74
2021/11/05 13:32:17;;;;;;;16.37;8.10;;;;;;;;;;4959289;28;20228;-74
2021/11/05 13:34:44;;;;;;;18.53;9.03;;;;;;;;;;4964509;28;20245;-74
2021/11/05 13:37:12;;;;;;;19.53;9.00;;;;;;;;;;4960858;28;20392;-74
2021/11/05 13:39:39;;;;;;;19.27;9.30;;;;;;;;;;4969263;28;20309;-74
2021/11/05 13:42:11;;;;;;;18.70;9.50;;;;;;;;;;4964872;28;20235;-74
2021/11/05 13:44:39;;;;;;;21.23;9.17;;;;;;;;;;4961529;28;20250;-74
2021/11/05 13:47:13;;;;;;;22.87;10.60;;;;;;;;;;4957701;28;20276;-74
2021/11/05 13:49:42;;;;;;;23.17;10.50;;;;;;;;;;4960071;28;20233;-74
2021/11/05 13:52:09;;;;;;;24.03;9.87;;;;;;;;;;4954907;28;20597;-74
2021/11/05 13:54:42;;;;;;;22.47;9.70;;;;;;;;;;4960344;28;20281;-74
2021/11/05 13:57:09;;;;;;;24.13;9.57;;;;;;;;;;4957427;28;20293;-74
2021/11/05 13:59:37;;;;;;;23.60;9.90;;;;;;;;;;4961700;28;20226;-74
2021/11/05 14:02:05;;;;;;;23.93;10.57;;;;;;;;;;4961863;28;20274;-74
2021/11/05 14:04:32;;;;;;;27.23;11.37;;;;;;;;;;4962635;28;20324;-75
2021/11/05 14:07:01;;;;;;;25.47;13.20;;;;;;;;;;4965579;28;20770;-74
2021/11/05 14:09:30;;;;;;;24.00;11.83;;;;;;;;;;4961960;28;20230;-74
2021/11/05 14:12:00;;;;;;;21.67;10.03;;;;;;;;;;4961235;28;20707;-74
2021/11/05 14:14:28;;;;;;;20.00;10.63;;;;;;;;;;4961304;28;20214;-74
2021/11/05 14:16:56;;;;;;;25.20;10.77;;;;;;;;;;4959588;28;20569;-74
2021/11/05 14:19:25;;;;;;;20.00;10.27;;;;;;;;;;4952440;28;20743;-75
2021/11/05 14:21:58;;;;;;;19.60;9.40;;;;;;;;;;4954206;28;20302;-75
2021/11/05 14:24:27;;;;;;;19.57;9.20;;;;;;;;;;4956993;28;20696;-75
2021/11/05 14:27:06;;;;;;;29.40;13.43;;;;;;;;;;4942252;28;20212;-75
2021/11/05 14:29:34;;;;;;;20.70;9.00;;;;;;;;;;4954123;28;20316;-75
2021/11/05 14:32:03;;;;;;;20.53;10.50;;;;;;;;;;4956089;28;20493;-75
2021/11/05 14:34:48;;;;;;;24.03;9.93;;;;;;;;;;4951048;28;20256;-75
2021/11/05 14:37:16;;;;;;;39.80;20.17;;;;;;;;;;4958248;28;20654;-75
2021/11/05 14:39:45;;;;;;;22.57;10.33;;;;;;;;;;4971247;23;20308;-75
2021/11/05 14:42:20;;;;;;;22.43;11.07;;;;;;;;;;4967348;28;20586;-77
2021/11/05 14:44:47;;;;;;;19.80;10.43;;;;;;;;;;4977309;28;20238;-75
2021/11/05 14:47:15;;;;;;;20.90;12.00;;;;;;;;;;4983709;28;20208;-75
2021/11/05 14:49:43;;;;;;;28.40;15.93;;;;;;;;;;4962081;28;20261;-74
2021/11/05 14:52:11;;;;;;;31.53;18.57;;;;;;;;;;4959910;28;20309;-74
2021/11/05 14:54:38;;;;;;;19.83;11.80;;;;;;;;;;4960406;28;20206;-74
2021/11/05 14:57:15;;;;;;;20.47;8.87;;;;;;;;;;4961781;28;20209;-74
2021/11/05 14:59:42;;;;;;;16.30;8.03;;;;;;;;;;4960518;28;20321;-74
2021/11/05 15:02:30;;;;;;;18.77;8.17;;;;;;;;;;4956889;28;20209;-74
2021/11/05 15:05:16;;;;;;;17.30;7.80;;;;;;;;;;4958603;28;20603;-75
2021/11/05 15:07:48;;;;;;;16.30;8.70;;;;;;;;;;4958802;28;20300;-75
2021/11/05 15:10:15;;;;;;;17.37;7.83;;;;;;;;;;4956680;28;20234;-75
2021/11/05 15:12:44;;;;;;;14.37;7.37;;;;;;;;;;4957641;28;20265;-75
2021/11/05 15:15:12;;;;;;;19.83;11.53;;;;;;;;;;4953581;28;20209;-74
2021/11/05 15:17:39;;;;;;;15.00;8.53;;;;;;;;;;4955056;28;20284;-74
2021/11/05 15:20:07;;;;;;;20.07;9.20;;;;;;;;;;4963368;28;20285;-74
2021/11/05 15:22:34;;;;;;;20.97;8.60;;;;;;;;;;4958355;28;20202;-74
2021/11/05 15:25:01;;;;;;;22.07;8.77;;;;;;;;;;4963282;28;20229;-74
2021/11/05 15:27:35;;;;;;;20.23;9.20;;;;;;;;;;4958373;28;20640;-74
2021/11/05 15:30:05;;;;;;;20.23;8.30;;;;;;;;;;4957054;28;20351;-74
2021/11/05 15:32:32;;;;;;;15.30;8.00;;;;;;;;;;4960743;28;20304;-74
2021/11/05 15:34:59;;;;;;;18.57;8.50;;;;;;;;;;4960031;28;20308;-74
2021/11/05 15:37:26;;;;;;;14.00;7.03;;;;;;;;;;4960485;28;20702;-74
2021/11/05 15:39:54;;;;;;;19.10;7.77;;;;;;;;;;4957272;28;20620;-74
2021/11/05 15:42:21;;;;;;;15.97;7.47;;;;;;;;;;4956286;28;20209;-74
2021/11/05 15:44:48;;;;;;;17.83;8.27;;;;;;;;;;4957839;28;20304;-75
2021/11/05 15:47:17;;;;;;;20.57;8.07;;;;;;;;;;4956885;28;20220;-74
2021/11/05 15:49:44;;;;;;;20.93;11.17;;;;;;;;;;4959556;28;20321;-74
2021/11/05 15:52:12;;;;;;;29.57;14.07;;;;;;;;;;4962476;28;20896;-74
2021/11/05 15:54:39;;;;;;;24.57;11.63;;;;;;;;;;4957981;28;20213;-74
2021/11/05 15:57:07;;;;;;;15.80;8.70;;;;;;;;;;4959985;28;20300;-74
2021/11/05 15:59:34;;;;;;;19.50;8.07;;;;;;;;;;4957860;28;20308;-75
2021/11/05 16:02:02;;;;;;;14.70;7.50;;;;;;;;;;4962986;28;20202;-74
2021/11/05 16:04:31;;;;;;;16.57;7.80;;;;;;;;;;4958809;28;20213;-75
2021/11/05 16:06:58;;;;;;;15.30;6.50;;;;;;;;;;4959225;28;20628;-74
2021/11/05 16:09:26;;;;;;;22.17;7.50;;;;;;;;;;4954292;28;20265;-74
2021/11/05 16:11:54;;;;;;;22.03;8.57;;;;;;;;;;4960362;28;20217;-74
2021/11/05 16:14:21;;;;;;;14.43;7.00;;;;;;;;;;4952464;28;20230;-74
2021/11/05 16:16:48;;;;;;;16.30;8.07;;;;;;;;;;4947559;28;20654;-74
2021/11/05 16:19:15;;;;;;;17.50;8.53;;;;;;;;;;4952350;28;20317;-75
2021/11/05 16:21:44;;;;;;;14.67;7.73;;;;;;;;;;4945548;28;22268;-74
2021/11/05 16:24:13;;;;;;;18.07;7.23;;;;;;;;;;4945893;28;20202;-74
2021/11/05 16:26:41;;;;;;;18.60;7.37;;;;;;;;;;4951928;28;20210;-74
2021/11/05 16:29:09;;;;;;;22.43;7.80;;;;;;;;;;4954301;28;20234;-74
2021/11/05 16:31:37;;;;;;;15.03;7.10;;;;;;;;;;4956521;28;20747;-74
2021/11/05 16:34:04;;;;;;;18.87;8.23;;;;;;;;;;4959446;28;20312;-74
2021/11/05 16:36:31;;;;;;;19.80;7.10;;;;;;;;;;4958251;28;21168;-74
2021/11/05 16:39:00;;;;;;;13.97;7.50;;;;;;;;;;4958214;28;20312;-74
2021/11/05 16:41:27;;;;;;;17.40;7.53;;;;;;;;;;4958772;28;20316;-74
2021/11/05 16:43:54;;;;;;;27.83;10.70;;;;;;;;;;4956747;28;20296;-74
2021/11/05 16:46:23;;;;;;;20.60;8.63;;;;;;;;;;4958352;28;20296;-76
2021/11/05 16:48:51;;;;;;;14.73;7.17;;;;;;;;;;4959218;28;20733;-74
2021/11/05 16:51:19;;;;;;;16.83;7.30;;;;;;;;;;4959376;28;20679;-73
2021/11/05 16:53:47;;;;;;;11.27;6.40;;;;;;;;;;4961128;28;20226;-74
2021/11/05 16:56:16;;;;;;;13.03;6.63;;;;;;;;;;4958514;28;20768;-74
2021/11/05 16:58:44;;;;;;;11.17;6.43;;;;;;;;;;4962768;28;20204;-74
2021/11/05 17:01:12;;;;;;;14.83;7.80;;;;;;;;;;4961347;28;20202;-73
2021/11/05 17:03:39;;;;;;;14.40;7.03;;;;;;;;;;4955385;28;20212;-74
2021/11/05 17:06:06;;;;;;;12.60;6.47;;;;;;;;;;4959146;28;20265;-74
2021/11/05 17:08:34;;;;;;;15.97;7.30;;;;;;;;;;4958061;28;20202;-74
2021/11/05 17:11:01;;;;;;;23.67;7.60;;;;;;;;;;4955405;28;20304;-74
2021/11/05 17:13:32;;;;;;;16.87;7.67;;;;;;;;;;4956218;28;20722;-75
2021/11/05 17:16:02;;;;;;;19.33;7.50;;;;;;;;;;4961870;28;20313;-75
2021/11/05 17:18:29;;;;;;;21.00;7.50;;;;;;;;;;4958772;28;20297;-75
2021/11/05 17:20:56;;;;;;;17.53;7.87;;;;;;;;;;4938540;28;20287;-74
2021/11/05 17:23:23;;;;;;;20.30;8.20;;;;;;;;;;4946633;28;20854;-74
2021/11/05 17:25:50;;;;;;;18.13;7.60;;;;;;;;;;4956988;28;20654;-75
2021/11/05 17:28:17;;;;;;;20.77;8.70;;;;;;;;;;4954435;28;20284;-75
2021/11/05 17:30:47;;;;;;;14.67;7.83;;;;;;;;;;4949518;28;20245;-73
2021/11/05 17:33:14;;;;;;;21.13;10.43;;;;;;;;;;4962129;28;20233;-76
2021/11/05 17:35:44;;;;;;;25.40;12.40;;;;;;;;;;4958653;28;20300;-74
2021/11/05 17:38:12;;;;;;;24.10;12.03;;;;;;;;;;4965517;28;20340;-76
2021/11/05 17:40:39;;;;;;;28.20;12.43;;;;;;;;;;4953433;28;20657;-76
2021/11/05 17:43:07;;;;;;;21.97;11.30;;;;;;;;;;4953619;28;20289;-76
2021/11/05 17:45:35;;;;;;;27.80;12.37;;;;;;;;;;4955173;28;20640;-76
2021/11/05 17:48:04;;;;;;;22.70;11.03;;;;;;;;;;4947140;28;20209;-78
2021/11/05 17:50:32;;;;;;;21.13;10.20;;;;;;;;;;4944946;28;20597;-75
2021/11/05 17:52:59;;;;;;;22.57;11.23;;;;;;;;;;4937552;28;20348;-75
2021/11/05 17:55:27;;;;;;;21.20;10.00;;;;;;;;;;4947018;28;20345;-73
2021/11/05 17:57:56;;;;;;;22.63;9.03;;;;;;;;;;4948790;28;20268;-75
2021/11/05 18:00:25;;;;;;;20.80;9.17;;;;;;;;;;4950545;28;20377;-75
2021/11/05 18:02:53;;;;;;;25.87;11.83;;;;;;;;;;4956234;28;20348;-75
2021/11/05 18:05:21;;;;;;;24.10;9.13;;;;;;;;;;4957267;28;20316;-78
2021/11/05 18:07:48;;;;;;;22.37;8.63;;;;;;;;;;4961515;28;20216;-76
2021/11/05 18:10:16;;;;;;;21.57;9.27;;;;;;;;;;4952786;28;20761;-75
2021/11/05 18:12:43;;;;;;;18.47;8.83;;;;;;;;;;4954352;28;20393;-75
2021/11/05 18:15:10;;;;;;;19.97;10.03;;;;;;;;;;4945025;28;20690;-76
2021/11/05 18:17:38;;;;;;;22.97;10.30;;;;;;;;;;4941822;28;21460;-74
2021/11/05 18:20:07;;;;;;;23.27;10.80;;;;;;;;;;4944711;28;20228;-77
2021/11/05 18:22:36;;;;;;;24.57;10.00;;;;;;;;;;4950234;28;20293;-74
2021/11/05 18:25:04;;;;;;;24.37;11.07;;;;;;;;;;4953751;28;20321;-75
2021/11/05 18:27:31;;;;;;;23.50;9.87;;;;;;;;;;4957228;28;20293;-76
2021/11/05 18:29:59;;;;;;;22.40;9.70;;;;;;;;;;4953567;28;20684;-73
2021/11/05 18:32:26;;;;;;;21.30;8.73;;;;;;;;;;4953064;28;20223;-77
2021/11/05 18:34:54;;;;;;;21.20;10.47;;;;;;;;;;4956759;28;20324;-74
2021/11/05 18:37:21;;;;;;;26.27;11.27;;;;;;;;;;4953657;28;20226;-74
2021/11/05 18:39:50;;;;;;;29.83;10.87;;;;;;;;;;4949931;28;20777;-73
2021/11/05 18:42:17;;;;;;;24.60;12.43;;;;;;;;;;4946865;28;20939;-73
2021/11/05 18:44:45;;;;;;;32.70;15.67;;;;;;;;;;4959047;28;20863;-73
2021/11/05 18:47:12;;;;;;;39.07;15.57;;;;;;;;;;4942426;28;20301;-73
2021/11/05 18:49:39;;;;;;;34.10;14.47;;;;;;;;;;4954147;28;20324;-76
2021/11/05 18:52:07;;;;;;;31.53;14.37;;;;;;;;;;4956469;28;20305;-74
2021/11/05 18:54:36;;;;;;;38.03;17.23;;;;;;;;;;4951517;28;20252;-74
2021/11/05 18:57:05;;;;;;;36.73;18.27;;;;;;;;;;4961082;28;20203;-73
2021/11/05 18:59:32;;;;;;;44.67;19.70;;;;;;;;;;4961004;28;20221;-74
2021/11/05 19:01:59;;;;;;;38.10;19.83;;;;;;;;;;4956561;28;20469;-74
2021/11/05 19:04:26;;;;;;;40.90;18.57;;;;;;;;;;4959634;28;20265;-74
2021/11/05 19:06:54;;;;;;;33.47;16.97;;;;;;;;;;4963602;28;20234;-72
2021/11/05 19:09:22;;;;;;;40.13;17.53;;;;;;;;;;4958325;28;20225;-74
2021/11/05 19:11:49;;;;;;;40.13;16.80;;;;;;;;;;4958469;28;20233;-73
2021/11/05 19:14:18;;;;;;;38.67;18.13;;;;;;;;;;4955592;28;20305;-75
2021/11/05 19:16:45;;;;;;;36.80;16.97;;;;;;;;;;4950776;28;20232;-74
2021/11/05 19:19:12;;;;;;;35.37;16.90;;;;;;;;;;4954372;28;20637;-74
2021/11/05 19:21:40;;;;;;;34.97;16.47;;;;;;;;;;4960606;28;20305;-73
2021/11/05 19:24:09;;;;;;;34.00;15.70;;;;;;;;;;4953816;28;21924;-75
2021/11/05 19:26:39;;;;;;;37.47;16.27;;;;;;;;;;4948202;28;20866;-75
2021/11/05 19:29:12;;;;;;;37.20;16.93;;;;;;;;;;4949593;28;20229;-74
2021/11/05 19:31:41;;;;;;;42.27;16.47;;;;;;;;;;4952015;28;20664;-75
2021/11/05 19:34:08;;;;;;;29.63;14.30;;;;;;;;;;4946283;28;20708;-75
2021/11/05 19:36:36;;;;;;;34.73;15.53;;;;;;;;;;4958902;28;20292;-75
2021/11/05 19:39:05;;;;;;;45.60;17.97;;;;;;;;;;4955366;28;20292;-75
2021/11/05 19:41:32;;;;;;;44.80;18.03;;;;;;;;;;4951503;28;20298;-75